Time;durP1;ratioP1;P1;durP2;ratioP2;P2;SDS_P1;SDS_P2;PMS_P1;PMS_P2;Temp;Humidity;BMP_temperature;BMP_pressure;BME280_temperature;BME280_humidity;BME280_pressure;Samples;Min_cycle;Max_cycle;Signal;HPM_P1;HPM_P2
2023/07/27 04:22:32;;;;;;;4.65;2.70;;;;;;;13.36;100.00;99871.66;5109958;27;20396;-65
2023/07/27 04:24:58;;;;;;;5.30;3.80;;;;;;;13.40;100.00;99857.69;5108577;28;20044;-65
2023/07/27 04:27:23;;;;;;;4.22;3.25;;;;;;;13.44;100.00;99861.63;5113677;28;20035;-65
2023/07/27 04:29:49;;;;;;;5.47;4.05;;;;;;;13.47;100.00;99863.06;5129489;28;20230;-65
2023/07/27 04:32:14;;;;;;;3.10;2.40;;;;;;;13.48;100.00;99860.19;5130332;27;20117;-66
2023/07/27 04:34:39;;;;;;;8.07;3.92;;;;;;;13.52;100.00;99865.97;5128831;28;20042;-65
2023/07/27 04:37:05;;;;;;;3.95;2.65;;;;;;;13.55;100.00;99860.22;5108485;27;20716;-65
2023/07/27 04:39:30;;;;;;;5.70;3.20;;;;;;;13.59;100.00;99864.13;5108745;28;20077;-65
2023/07/27 04:41:56;;;;;;;4.97;2.75;;;;;;;13.63;100.00;99862.72;5109542;28;20028;-65
2023/07/27 04:44:22;;;;;;;3.95;2.42;;;;;;;13.67;100.00;99866.63;5109508;28;20118;-65
2023/07/27 04:46:47;;;;;;;5.30;3.65;;;;;;;13.71;100.00;99873.22;5108438;28;20043;-49
2023/07/27 04:49:13;;;;;;;4.00;3.15;;;;;;;13.73;100.00;99868.50;5107901;28;20043;-65
2023/07/27 04:51:38;;;;;;;4.57;2.65;;;;;;;13.75;100.00;99865.59;5109410;28;20039;-65
2023/07/27 04:54:04;;;;;;;4.30;2.90;;;;;;;13.83;100.00;99863.56;5108100;28;20040;-65
2023/07/27 04:56:30;;;;;;;4.07;2.78;;;;;;;13.86;100.00;99859.66;5107813;28;20074;-65
2023/07/27 04:58:55;;;;;;;3.63;2.33;;;;;;;13.91;100.00;99859.06;5107563;28;20044;-65
2023/07/27 05:01:21;;;;;;;2.78;2.28;;;;;;;13.94;100.00;99862.13;5107790;28;20035;-64
2023/07/27 05:03:46;;;;;;;7.15;3.85;;;;;;;13.99;100.00;99850.81;5109287;28;20043;-65
2023/07/27 05:06:12;;;;;;;4.00;2.67;;;;;;;14.02;100.00;99845.06;5109066;28;20093;-64
2023/07/27 05:08:37;;;;;;;4.65;2.60;;;;;;;14.03;100.00;99847.53;5108774;28;20036;-65
2023/07/27 05:11:05;;;;;;;3.45;2.47;;;;;;;14.09;100.00;99837.88;5108967;28;20032;-65
2023/07/27 05:13:31;;;;;;;4.35;3.10;;;;;;;14.16;100.00;99844.03;5108884;28;20114;-64
2023/07/27 05:15:58;;;;;;;3.55;2.70;;;;;;;14.18;100.00;99836.63;5108888;28;20048;-65
2023/07/27 05:18:23;;;;;;;5.17;2.97;;;;;;;14.23;100.00;99844.84;5108719;28;20028;-64
2023/07/27 05:20:48;;;;;;;3.83;2.55;;;;;;;14.27;100.00;99829.19;5108724;28;20790;-64
2023/07/27 05:23:14;;;;;;;2.42;2.05;;;;;;;14.29;100.00;99830.63;5108929;28;20130;-64
2023/07/27 05:25:39;;;;;;;3.20;2.47;;;;;;;14.35;100.00;99823.63;5108596;28;20035;-63
2023/07/27 05:28:05;;;;;;;3.75;2.60;;;;;;;14.39;100.00;99822.16;5108647;28;20499;-65
2023/07/27 05:30:31;;;;;;;3.33;2.50;;;;;;;14.47;100.00;99823.81;5107904;28;20080;-64
2023/07/27 05:32:57;;;;;;;4.70;3.40;;;;;;;14.53;100.00;99826.50;5100433;28;20036;-64
2023/07/27 05:35:22;;;;;;;5.38;2.75;;;;;;;14.61;100.00;99820.13;5094805;28;20036;-63
2023/07/27 05:37:48;;;;;;;5.00;2.45;;;;;;;14.66;100.00;99821.09;5094964;28;20035;-64
2023/07/27 05:40:16;;;;;;;3.67;2.50;;;;;;;14.73;100.00;99815.72;5094630;28;20040;-64
2023/07/27 05:42:43;;;;;;;3.63;2.72;;;;;;;14.80;100.00;99813.03;5094784;28;20032;-64
2023/07/27 05:45:09;;;;;;;10.93;7.25;;;;;;;14.88;100.00;99819.00;5094724;28;20043;-64
2023/07/27 05:47:34;;;;;;;4.72;3.60;;;;;;;14.98;100.00;99823.09;5094691;28;20066;-62
2023/07/27 05:50:00;;;;;;;5.13;2.72;;;;;;;15.04;100.00;99817.69;5094424;28;20449;-64
2023/07/27 05:52:25;;;;;;;3.17;2.53;;;;;;;15.13;100.00;99816.44;5094625;28;20040;-61
2023/07/27 05:54:51;;;;;;;6.00;2.75;;;;;;;15.27;100.00;99827.94;5094578;28;20504;-64
2023/07/27 05:57:16;;;;;;;4.68;2.90;;;;;;;15.37;100.00;99824.78;5094453;28;20044;-64
2023/07/27 05:59:42;;;;;;;3.20;2.05;;;;;;;15.49;100.00;99831.09;5094242;28;20111;-63
2023/07/27 06:02:07;;;;;;;5.63;2.85;;;;;;;15.57;100.00;99828.16;5094494;28;20659;-63
2023/07/27 06:04:33;;;;;;;3.35;2.25;;;;;;;15.64;100.00;99823.59;5094375;28;20477;-62
2023/07/27 06:06:58;;;;;;;3.42;2.50;;;;;;;15.72;100.00;99817.16;5094397;28;20036;-63
2023/07/27 06:09:24;;;;;;;3.30;2.20;;;;;;;15.79;100.00;99809.88;5094107;28;20035;-63
2023/07/27 06:11:51;;;;;;;2.65;2.20;;;;;;;15.83;100.00;99815.63;5094237;28;20054;-60
2023/07/27 06:14:17;;;;;;;2.75;2.33;;;;;;;15.90;100.00;99819.91;5094203;28;20044;-63
2023/07/27 06:16:42;;;;;;;4.10;2.30;;;;;;;15.96;100.00;99816.34;5094129;28;20136;-61
2023/07/27 06:19:08;;;;;;;5.40;2.13;;;;;;;16.00;100.00;99822.94;5093900;28;20044;-62
2023/07/27 06:21:33;;;;;;;4.68;2.42;;;;;;;16.04;100.00;99822.50;5093989;28;20040;-62
2023/07/27 06:23:59;;;;;;;5.18;2.38;;;;;;;16.09;100.00;99820.78;5094074;28;20036;-65
2023/07/27 06:26:24;;;;;;;2.72;2.13;;;;;;;16.12;100.00;99820.38;5093958;28;20518;-62
2023/07/27 06:28:49;;;;;;;5.15;2.83;;;;;;;16.18;100.00;99821.38;5093644;28;20040;-62
2023/07/27 06:31:15;;;;;;;3.83;2.28;;;;;;;16.19;100.00;99818.44;5093741;28;20404;-62
2023/07/27 06:33:40;;;;;;;3.35;2.10;;;;;;;16.20;100.00;99822.78;5093910;28;20374;-61
2023/07/27 06:36:07;;;;;;;3.65;2.10;;;;;;;16.27;100.00;99833.47;5092597;28;20036;-60
2023/07/27 06:38:32;;;;;;;3.35;2.10;;;;;;;16.26;100.00;99840.72;5093447;28;20043;-63
2023/07/27 06:40:58;;;;;;;2.78;2.13;;;;;;;16.28;100.00;99835.94;5093725;28;20040;-61
2023/07/27 06:43:23;;;;;;;3.08;2.13;;;;;;;16.31;100.00;99823.94;5093429;28;20044;-62
2023/07/27 06:45:49;;;;;;;4.03;2.22;;;;;;;16.36;100.00;99821.38;5092758;28;20063;-64
2023/07/27 06:48:15;;;;;;;4.57;2.42;;;;;;;16.35;100.00;99814.38;5093539;28;20050;-61
2023/07/27 06:50:40;;;;;;;4.45;2.60;;;;;;;16.34;100.00;99807.34;5093411;28;20040;-64
2023/07/27 06:53:05;;;;;;;4.25;2.58;;;;;;;16.35;100.00;99811.69;5093632;28;20031;-64
2023/07/27 06:55:31;;;;;;;4.65;2.13;;;;;;;16.37;100.00;99812.31;5093432;28;20178;-64
2023/07/27 06:57:57;;;;;;;4.10;2.30;;;;;;;16.37;100.00;99804.25;5093342;28;20126;-63
2023/07/27 07:00:23;;;;;;;4.60;2.40;;;;;;;16.41;100.00;99805.41;5093269;28;20088;-65
2023/07/27 07:02:48;;;;;;;3.20;2.63;;;;;;;16.43;100.00;99795.28;5093243;28;20127;-65
2023/07/27 07:05:14;;;;;;;2.88;2.30;;;;;;;16.51;100.00;99797.69;5093168;28;20052;-65
2023/07/27 07:07:39;;;;;;;4.18;2.10;;;;;;;16.61;100.00;99797.16;5093208;28;20044;-63
2023/07/27 07:10:06;;;;;;;3.97;2.30;;;;;;;16.76;100.00;99804.91;5092961;28;20039;-63
2023/07/27 07:12:31;;;;;;;3.15;2.00;;;;;;;16.85;100.00;99808.94;5092978;28;20047;-62
2023/07/27 07:14:57;;;;;;;2.90;2.22;;;;;;;16.94;100.00;99807.56;5093139;28;20044;-61
2023/07/27 07:17:22;;;;;;;6.35;2.50;;;;;;;17.00;100.00;99805.84;5093187;28;20484;-64
2023/07/27 07:19:47;;;;;;;4.75;2.40;;;;;;;17.00;100.00;99809.34;5092757;28;20046;-64
2023/07/27 07:22:13;;;;;;;4.70;2.65;;;;;;;17.06;100.00;99805.75;5092964;28;20032;-64
2023/07/27 07:24:38;;;;;;;5.47;2.75;;;;;;;17.06;100.00;99805.75;5092859;28;20043;-64
2023/07/27 07:27:04;;;;;;;3.45;2.25;;;;;;;17.06;100.00;99799.56;5092788;28;20043;-64
2023/07/27 07:29:29;;;;;;;4.43;2.30;;;;;;;17.10;100.00;99795.38;5092793;28;20381;-64
2023/07/27 07:31:55;;;;;;;4.25;2.95;;;;;;;17.16;100.00;99783.72;5092736;28;20401;-63
2023/07/27 07:34:20;;;;;;;3.85;2.40;;;;;;;17.15;97.22;99786.59;5092813;28;20036;-61
2023/07/27 07:36:46;;;;;;;3.88;2.03;;;;;;;17.26;98.05;99778.59;5091451;28;20544;-62
2023/07/27 07:39:11;;;;;;;4.90;2.40;;;;;;;17.31;99.07;99786.00;5092470;28;20066;-64
2023/07/27 07:41:37;;;;;;;3.78;2.40;;;;;;;17.35;98.38;99784.50;5092541;28;20032;-63
2023/07/27 07:44:02;;;;;;;3.28;2.20;;;;;;;17.41;98.61;99771.97;5092596;28;20044;-63
2023/07/27 07:46:28;;;;;;;2.80;2.28;;;;;;;17.43;97.72;99775.28;5092400;28;20552;-61
2023/07/27 07:48:53;;;;;;;5.43;2.45;;;;;;;17.52;97.08;99777.41;5092199;28;20036;-64
2023/07/27 07:51:18;;;;;;;2.83;2.10;;;;;;;17.55;98.80;99770.75;5092379;28;20408;-63
2023/07/27 07:53:44;;;;;;;3.75;2.35;;;;;;;17.55;99.49;99760.78;5092464;28;20101;-61
2023/07/27 07:56:15;;;;;;;5.10;2.30;;;;;;;17.56;98.03;99757.03;5091995;28;20487;-63
2023/07/27 07:58:41;;;;;;;3.45;2.30;;;;;;;17.61;96.01;99754.47;5092137;28;20473;-62
2023/07/27 08:01:07;;;;;;;3.90;2.08;;;;;;;17.54;96.23;99740.31;5092262;28;20028;-62
2023/07/27 08:03:32;;;;;;;2.53;2.22;;;;;;;17.61;95.72;99738.31;5092267;28;20400;-64
2023/07/27 08:05:58;;;;;;;4.25;2.35;;;;;;;17.63;95.05;99733.53;5092098;28;20511;-63
2023/07/27 08:08:24;;;;;;;3.20;2.50;;;;;;;17.67;94.91;99725.81;5092469;28;20040;-63
2023/07/27 08:10:50;;;;;;;2.80;2.10;;;;;;;17.64;93.43;99715.50;5091963;28;20404;-65
2023/07/27 08:13:15;;;;;;;3.65;1.90;;;;;;;17.65;94.58;99719.81;5092151;28;20028;-63
2023/07/27 08:15:50;;;;;;;4.10;2.22;;;;;;;17.62;95.85;99721.13;5092029;28;20040;-63
2023/07/27 08:18:15;;;;;;;2.78;2.00;;;;;;;17.69;96.46;99710.22;5091994;28;20515;-63
2023/07/27 08:20:41;;;;;;;4.80;2.45;;;;;;;17.76;96.95;99704.78;5090732;28;20040;-63
2023/07/27 08:23:06;;;;;;;3.78;2.20;;;;;;;17.85;96.24;99712.25;5092000;28;20063;-63
2023/07/27 08:25:39;;;;;;;4.10;2.30;;;;;;;17.97;93.06;99698.78;5091988;28;20024;-61
2023/07/27 08:28:05;;;;;;;7.60;2.65;;;;;;;18.06;93.37;99702.78;5091964;28;20484;-62
2023/07/27 08:30:32;;;;;;;4.85;2.33;;;;;;;18.17;93.74;99710.03;5091616;28;20044;-63
2023/07/27 08:32:58;;;;;;;3.15;2.35;;;;;;;18.22;92.55;99713.91;5092103;28;20040;-61
2023/07/27 08:35:23;;;;;;;2.30;1.90;;;;;;;18.25;92.57;99710.72;5091803;28;20032;-63
2023/07/27 08:37:49;;;;;;;2.83;2.20;;;;;;;18.21;94.11;99723.03;5091828;28;20032;-63
2023/07/27 08:40:14;;;;;;;3.30;2.40;;;;;;;18.23;94.17;99729.84;5091612;28;20115;-63
2023/07/27 08:42:42;;;;;;;3.85;2.92;;;;;;;18.22;94.81;99732.78;5092062;28;20131;-62
2023/07/27 08:45:08;;;;;;;3.88;2.20;;;;;;;18.15;95.83;99728.31;5091703;28;20036;-62
2023/07/27 08:47:34;;;;;;;3.83;2.28;;;;;;;18.07;96.06;99738.63;5091821;28;20036;-62
2023/07/27 08:50:01;;;;;;;3.08;2.03;;;;;;;18.14;95.86;99733.94;5091633;28;20032;-62
2023/07/27 08:52:27;;;;;;;3.73;2.33;;;;;;;18.09;95.71;99731.13;5091687;28;20040;-61
2023/07/27 08:54:53;;;;;;;3.83;2.22;;;;;;;18.02;96.61;99736.63;5090574;28;20663;-62
2023/07/27 08:57:18;;;;;;;4.13;2.50;;;;;;;17.84;98.05;99725.97;5091722;28;20040;-63
2023/07/27 08:59:44;;;;;;;4.13;2.67;;;;;;;17.90;98.96;99728.53;5091468;28;20068;-62
2023/07/27 09:02:09;;;;;;;3.63;2.17;;;;;;;17.82;99.78;99731.59;5091716;28;20546;-62
2023/07/27 09:04:34;;;;;;;5.07;2.40;;;;;;;17.79;100.00;99726.66;5091723;28;20408;-64
2023/07/27 09:07:06;;;;;;;3.92;2.30;;;;;;;17.76;100.00;99723.63;5091511;28;20493;-63
2023/07/27 09:09:32;;;;;;;3.05;2.25;;;;;;;17.78;100.00;99732.28;5095287;28;20040;-65
2023/07/27 09:11:57;;;;;;;2.47;1.88;;;;;;;17.81;98.91;99721.06;5095380;28;20036;-63
2023/07/27 09:14:23;;;;;;;4.63;2.40;;;;;;;17.78;97.00;99716.13;5095343;28;20043;-64
2023/07/27 09:16:50;;;;;;;3.10;1.90;;;;;;;17.74;98.93;99720.34;5095197;28;20032;-63
2023/07/27 09:19:17;;;;;;;3.13;2.10;;;;;;;17.69;100.00;99720.19;5094821;28;20481;-64
2023/07/27 09:21:51;;;;;;;3.80;1.95;;;;;;;17.70;100.00;99719.13;5095133;28;20505;-63
2023/07/27 09:24:17;;;;;;;4.78;2.95;;;;;;;17.67;100.00;99725.81;5095373;28;20432;-63
2023/07/27 09:26:48;;;;;;;3.67;2.40;;;;;;;17.68;100.00;99737.41;5095111;28;20036;-63
2023/07/27 09:29:15;;;;;;;4.25;2.17;;;;;;;17.69;100.00;99730.97;5094754;28;20051;-63
2023/07/27 09:31:58;;;;;;;5.00;2.70;;;;;;;17.76;100.00;99740.59;5095169;28;20028;-63
2023/07/27 09:34:30;;;;;;;4.57;2.40;;;;;;;17.80;100.00;99736.41;5095246;28;20048;-62
2023/07/27 09:37:00;;;;;;;3.20;2.42;;;;;;;17.87;97.75;99720.13;5095110;28;20075;-62
2023/07/27 09:39:27;;;;;;;5.40;2.13;;;;;;;17.93;92.43;99710.25;5094790;28;20152;-61
2023/07/27 09:41:53;;;;;;;2.67;1.90;;;;;;;18.03;89.14;99703.25;5094880;28;20071;-64
2023/07/27 09:44:20;;;;;;;2.88;1.63;;;;;;;18.12;88.78;99701.81;5094996;28;20036;-63
2023/07/27 09:46:46;;;;;;;4.32;2.10;;;;;;;18.24;87.53;99690.22;5095075;28;20039;-62
2023/07/27 09:49:13;;;;;;;4.40;2.20;;;;;;;18.30;85.79;99703.56;5094658;28;20044;-64
2023/07/27 09:51:39;;;;;;;4.22;2.40;;;;;;;18.36;86.83;99707.19;5094840;28;20480;-62
2023/07/27 09:54:05;;;;;;;5.28;2.22;;;;;;;18.32;88.03;99696.09;5095010;28;20035;-63
2023/07/27 09:56:31;;;;;;;2.35;2.00;;;;;;;18.38;88.08;99700.50;5094951;28;20051;-63
2023/07/27 09:58:58;;;;;;;7.22;2.97;;;;;;;18.39;88.11;99706.75;5094635;28;20553;-63
2023/07/27 10:01:24;;;;;;;3.08;2.08;;;;;;;18.47;89.54;99692.88;5095274;28;20044;-63
2023/07/27 10:03:50;;;;;;;2.70;1.90;;;;;;;18.58;90.19;99692.03;5094729;28;20032;-63
2023/07/27 10:06:17;;;;;;;5.15;2.00;;;;;;;18.83;90.12;99680.94;5094679;28;20504;-64
2023/07/27 10:08:44;;;;;;;2.88;1.90;;;;;;;19.16;88.78;99676.69;5094178;28;20138;-63
2023/07/27 10:11:10;;;;;;;2.83;1.70;;;;;;;19.48;84.52;99675.06;5094243;28;20032;-63
2023/07/27 10:13:38;;;;;;;3.15;2.08;;;;;;;19.69;83.02;99672.72;5094311;28;20377;-63
2023/07/27 10:16:08;;;;;;;2.33;1.65;;;;;;;19.93;81.25;99670.66;5094229;28;20564;-63
2023/07/27 10:18:39;;;;;;;2.78;1.85;;;;;;;20.13;78.40;99664.72;5093776;28;20119;-64
2023/07/27 10:21:25;;;;;;;3.47;2.22;;;;;;;20.53;79.23;99664.44;5094123;28;20546;-63
2023/07/27 10:24:01;;;;;;;6.35;2.50;;;;;;;20.96;72.03;99643.81;5094236;28;20035;-63
2023/07/27 10:26:46;;;;;;;3.97;2.03;;;;;;;21.25;69.50;99645.16;5094174;28;20438;-64
2023/07/27 10:29:23;;;;;;;5.07;1.98;;;;;;;21.47;70.30;99644.31;5093697;28;20039;-63
2023/07/27 10:32:14;;;;;;;3.50;1.88;;;;;;;21.60;65.73;99638.44;5094142;28;20036;-62
2023/07/27 10:34:40;;;;;;;6.55;2.75;;;;;;;21.52;67.01;99636.22;5092645;28;20408;-63
2023/07/27 10:37:08;;;;;;;4.55;2.40;;;;;;;21.54;66.09;99634.88;5093844;28;20032;-64
2023/07/27 10:39:49;;;;;;;2.75;1.95;;;;;;;21.56;66.06;99640.84;5093482;28;20067;-64
2023/07/27 10:42:22;;;;;;;3.85;2.03;;;;;;;21.60;69.76;99633.84;5093855;28;20046;-64
2023/07/27 10:44:52;;;;;;;4.05;2.10;;;;;;;21.58;63.29;99637.88;5093681;28;20039;-63
2023/07/27 10:47:24;;;;;;;3.70;2.35;;;;;;;21.50;64.79;99646.47;5092348;28;20397;-63
2023/07/27 10:49:55;;;;;;;3.30;1.85;;;;;;;21.34;62.30;99640.94;5093445;28;20425;-63
2023/07/27 10:52:27;;;;;;;3.00;1.65;;;;;;;21.25;63.07;99638.94;5093394;28;20127;-64
2023/07/27 10:54:53;;;;;;;2.95;2.10;;;;;;;21.22;66.49;99632.16;5093471;28;20036;-64
2023/07/27 10:57:20;;;;;;;3.35;1.75;;;;;;;21.17;64.70;99634.00;5093289;28;20052;-64
2023/07/27 10:59:50;;;;;;;4.10;2.00;;;;;;;21.14;64.82;99625.31;5093209;28;20036;-63
2023/07/27 11:02:21;;;;;;;4.38;1.95;;;;;;;21.06;64.39;99627.66;5093394;28;20088;-64
2023/07/27 11:04:51;;;;;;;7.22;2.50;;;;;;;20.99;63.42;99622.44;5091982;28;20035;-64
2023/07/27 11:07:33;;;;;;;3.60;2.10;;;;;;;20.98;62.86;99628.13;5092006;28;20107;-63
2023/07/27 11:10:03;;;;;;;3.70;2.30;;;;;;;20.84;63.99;99620.41;5092835;28;20061;-64
2023/07/27 11:12:28;;;;;;;6.10;2.20;;;;;;;20.82;66.71;99619.06;5093287;28;20043;-63
2023/07/27 11:14:55;;;;;;;4.03;2.45;;;;;;;20.76;66.04;99618.19;5093122;28;20023;-64
2023/07/27 11:17:22;;;;;;;5.22;2.58;;;;;;;20.73;66.63;99612.44;5093146;28;20085;-64
2023/07/27 11:19:47;;;;;;;4.93;2.58;;;;;;;20.65;68.82;99616.44;5092804;28;20032;-64
2023/07/27 11:22:13;;;;;;;5.47;2.08;;;;;;;20.60;68.15;99613.66;5092843;28;20028;-64
2023/07/27 11:24:38;;;;;;;3.03;2.15;;;;;;;20.29;69.13;99585.44;5092877;28;20043;-64
2023/07/27 11:27:06;;;;;;;5.30;2.30;;;;;;;20.52;71.32;99616.81;5092997;28;20126;-64
2023/07/27 11:29:32;;;;;;;4.72;2.85;;;;;;;20.47;73.49;99616.75;5092606;28;20044;-62
2023/07/27 11:31:59;;;;;;;3.55;2.53;;;;;;;20.50;73.94;99616.28;5092271;28;20048;-62
2023/07/27 11:34:26;;;;;;;4.15;2.55;;;;;;;20.44;74.22;99611.84;5092815;28;20130;-63
2023/07/27 11:36:54;;;;;;;6.30;2.38;;;;;;;20.40;75.76;99613.41;5092733;28;20040;-63
2023/07/27 11:39:20;;;;;;;4.38;2.40;;;;;;;20.28;76.57;99600.84;5092265;28;20036;-63
2023/07/27 11:41:47;;;;;;;5.88;2.60;;;;;;;20.21;79.19;99610.19;5092710;28;20085;-64
2023/07/27 11:44:13;;;;;;;3.78;2.70;;;;;;;20.10;80.83;99608.47;5092670;28;20028;-64
2023/07/27 11:46:46;;;;;;;8.40;3.28;;;;;;;19.96;85.52;99613.41;5092508;28;20492;-64
2023/07/27 11:49:13;;;;;;;4.28;2.72;;;;;;;19.72;88.76;99608.22;5092242;28;20137;-64
2023/07/27 11:51:39;;;;;;;6.13;2.42;;;;;;;19.64;89.63;99611.34;5092599;28;20020;-64
2023/07/27 11:54:05;;;;;;;8.97;2.87;;;;;;;19.53;93.08;99610.34;5092546;28;20047;-64
2023/07/27 11:56:37;;;;;;;8.60;3.20;;;;;;;19.35;92.86;99607.06;5092354;28;20036;-64
2023/07/27 11:59:06;;;;;;;6.05;3.40;;;;;;;19.31;96.11;99617.56;5092134;28;20047;-63
2023/07/27 12:01:36;;;;;;;6.80;2.70;;;;;;;19.31;100.00;99605.94;5092335;28;20070;-64
2023/07/27 12:04:04;;;;;;;8.80;3.22;;;;;;;19.27;98.23;99607.50;5092181;28;20047;-63
2023/07/27 12:06:30;;;;;;;6.10;3.58;;;;;;;19.32;100.00;99616.50;5092225;28;20040;-63
2023/07/27 12:08:56;;;;;;;4.50;3.05;;;;;;;19.31;100.00;99603.25;5092203;28;20063;-64
2023/07/27 12:11:26;;;;;;;9.80;3.45;;;;;;;19.44;100.00;99590.22;5092179;28;20577;-63
2023/07/27 12:13:51;;;;;;;4.88;3.15;;;;;;;19.47;100.00;99586.19;5092245;28;20131;-64
2023/07/27 12:16:17;;;;;;;6.72;3.63;;;;;;;19.63;100.00;99584.59;5092069;28;20493;-62
2023/07/27 12:18:43;;;;;;;5.82;3.65;;;;;;;19.75;99.87;99591.50;5090548;28;20610;-64
2023/07/27 12:21:09;;;;;;;5.68;2.92;;;;;;;19.86;99.91;99597.06;5092035;28;20071;-64
2023/07/27 12:23:35;;;;;;;4.95;3.03;;;;;;;19.95;99.67;99604.50;5091995;28;20068;-64
2023/07/27 12:26:00;;;;;;;6.80;3.13;;;;;;;20.10;98.27;99595.75;5090748;28;20044;-64
2023/07/27 12:28:26;;;;;;;5.95;2.85;;;;;;;20.19;98.26;99585.31;5091885;28;20036;-63
2023/07/27 12:30:51;;;;;;;5.03;2.90;;;;;;;20.25;100.00;99585.13;5091990;28;20048;-65
2023/07/27 12:33:17;;;;;;;7.35;3.75;;;;;;;20.30;98.26;99582.47;5091889;28;20043;-64
2023/07/27 12:35:43;;;;;;;8.10;3.72;;;;;;;20.40;98.86;99581.75;5092156;28;20039;-63
2023/07/27 12:38:08;;;;;;;8.27;3.28;;;;;;;20.48;96.24;99583.25;5091897;28;20036;-62
2023/07/27 12:40:34;;;;;;;7.18;3.00;;;;;;;20.57;96.78;99579.00;5091627;28;20055;-63
2023/07/27 12:43:00;;;;;;;4.97;3.33;;;;;;;20.70;98.45;99575.91;5093583;28;20081;-64
2023/07/27 12:45:26;;;;;;;4.28;2.78;;;;;;;20.78;97.87;99566.50;5095873;28;20389;-64
2023/07/27 12:47:52;;;;;;;4.50;2.92;;;;;;;20.79;100.00;99566.22;5095828;28;20130;-62
2023/07/27 12:50:17;;;;;;;6.97;3.08;;;;;;;20.94;98.78;99572.88;5095543;28;20070;-63
2023/07/27 12:52:43;;;;;;;4.60;2.85;;;;;;;21.02;98.08;99564.28;5095654;28;20067;-63
2023/07/27 12:55:09;;;;;;;4.78;2.85;;;;;;;21.12;96.28;99561.66;5095692;28;20071;-63
2023/07/27 12:57:35;;;;;;;5.03;2.60;;;;;;;21.13;95.71;99558.69;5095628;28;20048;-63
2023/07/27 13:00:02;;;;;;;4.90;2.65;;;;;;;21.29;92.88;99556.13;5094033;28;20093;-63
2023/07/27 13:02:28;;;;;;;4.60;2.60;;;;;;;21.37;93.04;99559.16;5095597;28;20036;-62
2023/07/27 13:04:53;;;;;;;3.67;2.65;;;;;;;21.53;93.21;99562.81;5095532;28;20088;-63
2023/07/27 13:07:19;;;;;;;6.30;2.92;;;;;;;21.56;91.78;99556.84;5095289;28;20036;-63
2023/07/27 13:09:44;;;;;;;5.50;2.67;;;;;;;21.60;89.67;99557.16;5093924;28;20089;-63
2023/07/27 13:12:09;;;;;;;6.68;2.42;;;;;;;21.61;88.43;99550.66;5095305;28;20401;-63
2023/07/27 13:14:35;;;;;;;3.92;2.70;;;;;;;21.68;89.33;99559.34;5095333;28;20051;-62
2023/07/27 13:17:01;;;;;;;4.18;2.22;;;;;;;21.63;88.62;99543.88;5095240;28;20451;-63
2023/07/27 13:19:27;;;;;;;4.20;2.53;;;;;;;21.64;88.58;99552.81;5095069;28;20032;-61
2023/07/27 13:21:54;;;;;;;5.65;2.50;;;;;;;21.66;86.45;99542.56;5095156;28;20593;-63
2023/07/27 13:24:19;;;;;;;3.47;2.60;;;;;;;21.71;86.52;99550.69;5095174;28;20040;-64
2023/07/27 13:26:45;;;;;;;3.53;2.25;;;;;;;21.74;83.57;99552.88;5095149;28;20036;-63
2023/07/27 13:29:15;;;;;;;6.07;3.35;;;;;;;21.68;82.71;99548.50;5094838;28;20374;-61
2023/07/27 13:31:40;;;;;;;4.13;2.55;;;;;;;21.56;85.07;99547.91;5095011;28;20036;-62
2023/07/27 13:34:06;;;;;;;6.70;3.03;;;;;;;21.53;81.93;99543.03;5094990;28;20154;-62
2023/07/27 13:36:31;;;;;;;6.22;3.05;;;;;;;21.52;82.14;99553.03;5094945;28;20083;-63
2023/07/27 13:38:56;;;;;;;3.88;2.67;;;;;;;21.47;82.11;99546.78;5094676;28;20117;-64
2023/07/27 13:41:22;;;;;;;6.60;2.50;;;;;;;21.42;81.99;99560.28;5094576;28;20036;-63
2023/07/27 13:43:47;;;;;;;5.72;2.33;;;;;;;21.37;82.51;99553.75;5094824;28;20035;-63
2023/07/27 13:46:13;;;;;;;5.13;2.78;;;;;;;21.42;82.77;99554.88;5094646;28;20271;-63
2023/07/27 13:48:38;;;;;;;5.18;3.15;;;;;;;21.39;84.15;99551.59;5094380;28;20127;-62
2023/07/27 13:51:03;;;;;;;5.60;3.13;;;;;;;21.45;84.27;99548.91;5094488;28;20044;-61
2023/07/27 13:53:29;;;;;;;4.97;2.60;;;;;;;21.42;83.36;99544.84;5094153;28;20508;-62
2023/07/27 13:55:54;;;;;;;3.88;2.38;;;;;;;21.37;84.30;99548.31;5094472;28;20040;-63
2023/07/27 13:58:20;;;;;;;5.60;2.38;;;;;;;21.36;84.92;99551.31;5094315;28;20031;-62
2023/07/27 14:00:46;;;;;;;3.15;2.45;;;;;;;21.39;83.34;99546.19;5094439;28;20240;-63
2023/07/27 14:03:11;;;;;;;5.00;2.47;;;;;;;21.38;82.67;99544.53;5094568;28;20096;-63
2023/07/27 14:05:36;;;;;;;3.95;2.75;;;;;;;21.38;82.01;99539.13;5094252;28;20450;-62
2023/07/27 14:08:03;;;;;;;3.85;2.70;;;;;;;21.35;83.68;99528.00;5093158;28;20028;-62
2023/07/27 14:10:28;;;;;;;4.15;2.42;;;;;;;21.35;82.54;99517.97;5093882;28;20115;-62
2023/07/27 14:12:54;;;;;;;6.85;3.28;;;;;;;21.48;82.81;99526.72;5094305;28;20467;-60
2023/07/27 14:15:20;;;;;;;2.70;2.25;;;;;;;21.46;82.14;99528.91;5094069;28;20476;-63
2023/07/27 14:17:45;;;;;;;5.75;2.70;;;;;;;21.45;83.56;99525.34;5094196;28;20059;-63
2023/07/27 14:20:11;;;;;;;4.15;2.42;;;;;;;21.44;82.67;99512.88;5093947;28;20117;-62
2023/07/27 14:22:37;;;;;;;8.52;3.30;;;;;;;21.50;84.44;99505.59;5094055;28;20042;-63
2023/07/27 14:25:03;;;;;;;3.83;2.53;;;;;;;21.58;83.46;99511.34;5094115;28;20064;-62
2023/07/27 14:27:29;;;;;;;6.20;2.50;;;;;;;21.64;83.28;99507.56;5093863;28;20043;-63
2023/07/27 14:29:54;;;;;;;4.90;2.85;;;;;;;21.76;82.63;99511.97;5093609;28;20354;-62
2023/07/27 14:32:20;;;;;;;4.20;2.55;;;;;;;21.88;82.16;99501.72;5093862;28;20393;-63
2023/07/27 14:34:45;;;;;;;5.60;2.90;;;;;;;21.97;81.74;99502.81;5093752;28;20108;-63
2023/07/27 14:37:10;;;;;;;6.88;2.85;;;;;;;22.10;82.06;99499.63;5093714;28;20040;-62
2023/07/27 14:39:36;;;;;;;5.32;2.65;;;;;;;22.31;81.48;99507.84;5093507;28;20043;-62
2023/07/27 14:42:01;;;;;;;5.82;2.88;;;;;;;22.42;79.50;99501.34;5093738;28;20028;-63
2023/07/27 14:44:27;;;;;;;5.88;2.83;;;;;;;22.63;79.44;99504.94;5093515;28;20066;-62
2023/07/27 14:46:52;;;;;;;5.05;2.85;;;;;;;22.74;78.73;99495.69;5093379;28;20436;-62
2023/07/27 14:49:17;;;;;;;6.70;3.67;;;;;;;22.89;78.44;99498.44;5093167;28;20048;-62
2023/07/27 14:51:43;;;;;;;5.68;3.15;;;;;;;22.98;77.88;99496.00;5093348;28;20032;-63
2023/07/27 14:54:08;;;;;;;3.05;2.50;;;;;;;23.09;78.45;99503.06;5093396;28;20478;-63
2023/07/27 14:56:34;;;;;;;4.55;2.97;;;;;;;23.21;74.83;99489.16;5093327;28;20039;-61
2023/07/27 14:59:00;;;;;;;4.70;2.80;;;;;;;23.39;74.70;99491.28;5093082;28;20440;-62
2023/07/27 15:01:26;;;;;;;6.97;2.80;;;;;;;23.39;69.69;99485.84;5093310;28;20028;-62
2023/07/27 15:03:51;;;;;;;5.15;2.42;;;;;;;23.45;70.06;99489.38;5093332;28;20388;-62
2023/07/27 15:06:16;;;;;;;5.57;3.22;;;;;;;23.38;71.90;99478.81;5092393;28;20042;-63
2023/07/27 15:08:42;;;;;;;6.20;2.80;;;;;;;23.43;71.55;99489.66;5092908;28;20054;-62
2023/07/27 15:11:07;;;;;;;7.60;2.90;;;;;;;23.43;69.12;99489.66;5093034;28;20044;-62
2023/07/27 15:13:33;;;;;;;4.22;2.80;;;;;;;23.39;68.24;99483.13;5093030;28;20036;-63
2023/07/27 15:15:58;;;;;;;5.13;2.40;;;;;;;23.41;68.79;99478.25;5092921;28;20123;-62
2023/07/27 15:18:24;;;;;;;4.15;2.42;;;;;;;23.50;68.46;99470.34;5091608;28;20051;-62
2023/07/27 15:20:58;;;;;;;4.20;2.42;;;;;;;23.43;67.08;99472.56;5092779;28;20096;-61
2023/07/27 15:23:24;;;;;;;7.25;4.28;;;;;;;23.37;68.10;99473.66;5092989;28;20036;-63
2023/07/27 15:25:57;;;;;;;5.80;2.88;;;;;;;23.35;70.04;99473.94;5092955;28;20084;-62
2023/07/27 15:28:23;;;;;;;3.70;2.60;;;;;;;23.35;69.70;99473.13;5092587;28;20066;-63
2023/07/27 15:30:48;;;;;;;4.68;2.85;;;;;;;23.31;68.85;99469.31;5092779;28;20074;-62
2023/07/27 15:33:13;;;;;;;6.78;2.83;;;;;;;23.33;68.80;99467.94;5092802;28;20389;-64
2023/07/27 15:35:39;;;;;;;5.95;2.75;;;;;;;23.28;68.17;99463.34;5092601;28;20051;-63
2023/07/27 15:38:04;;;;;;;6.60;2.72;;;;;;;23.29;68.86;99466.88;5086085;28;20029;-63
2023/07/27 15:40:30;;;;;;;7.28;2.88;;;;;;;23.28;69.41;99457.91;5081154;28;20052;-63
2023/07/27 15:42:55;;;;;;;5.30;3.35;;;;;;;23.29;70.09;99459.53;5065528;28;20485;-63
2023/07/27 15:45:21;;;;;;;3.30;2.58;;;;;;;23.26;70.11;99456.56;5079979;28;20083;-64
2023/07/27 15:47:46;;;;;;;8.98;3.53;;;;;;;23.28;69.41;99459.81;5081927;28;20035;-63
2023/07/27 15:50:12;;;;;;;4.97;3.92;;;;;;;23.27;69.86;99463.59;5080935;28;20121;-64